windsock image

Welcome to Bigfield Strip.

anemometer image
     

 Help for dials.  
 
Local Met:

Wind:   
10 Min average:  
236 ° / 0.0 kts (0.0)
248° / 0.0

Temperature:  
14.3°C C
Dew Point:  
13.2°C C
QNH:  
Trend:  
995.3 mb mb
-0.1mb/hr
BigField Strip. This image updates approximately every minute, it can have a two minute delay.  
 

Humidity:  
93 %
Sunrise:   04:18z
Sunset:   20:01z
Updated:  
  UTC
 
   More met info, trends, radar, history etc. available here   

LUTON Metar   EGGW 270150Z 24014KT 9999 OVC008 14/14 Q0995
 
  TAF   2015/07/26 20:51 TAF AMD EGGW 262043Z 2620/2718 23012KT 9999 FEW008 SCT025 TEMPO 2620/2704 7000 SHRA PROB30 TEMPO 2620/2704 24015G25KT 4000 +SHRA BKN008 BKN014CB TEMPO 2704/2708 BKN010 TEMPO 2711/2718 24017G27KT
 
BENSON Metar   EGUB 270150Z AUTO 21010KT 5000 // BKN007/// BKN014/// 14/14 Q0996
 
  TAF   2015/07/24 15:03 TAF EGUB 241321Z 2415/2419 02009KT 9999 -RA BKN040 TEMPO 2415/2419 7000 RA BKN010 PROB40 TEMPO 2415/2419 3000 +RA SCT006
 
Big Field view 1 icon   Big Field view 2 icon   Big Field view 3 icon   Chart AL3a in PDF icon   Chart AL3a in Word icon

WARNING:
This information is provided by the Airstrip unofficial weather station, DO NOT depend on the data provided here for any purpose.
This page is updated for latest Metars & TAF's every 5 minutes. Refresh the browser to check for the lastest.
Page designed for a minimum browser size of 1024x768.
© Copyright 2015 BigField Strip. This page auto generated 02:26 UTC - 27/07/2015   Contact Us
Valid HTML 4.01 Transitional     Windows uptime: 6 Days 23 Hours 54 Minutes 13 Seconds    WD started: 02:38 20/07/15    Free memory: 1292MB     Valid CSS!